Time;durP1;ratioP1;P1;durP2;ratioP2;P2;SDS_P1;SDS_P2;PMS_P1;PMS_P2;Temp;Humidity;BMP_temperature;BMP_pressure;BME280_temperature;BME280_humidity;BME280_pressure;Samples;Min_cycle;Max_cycle;Signal;HPM_P1;HPM_P2
2023/10/11 00:01:28;;;;;;;;;;;;;;;19.88;61.76;100935.06;5038094;28;6283;-68
2023/10/11 00:03:56;;;;;;;;;;;;;;;19.87;61.82;100934.31;5043763;28;2091;-68
2023/10/11 00:06:26;;;;;;;;;;;;;;;19.87;61.75;100942.22;5041305;28;2353;-67
2023/10/11 00:08:52;;;;;;;;;;;;;;;19.86;61.77;100929.97;5039163;28;2089;-68
2023/10/11 00:11:24;;;;;;;;;;;;;;;19.86;61.72;100940.75;5039102;28;2440;-68
2023/10/11 00:13:50;;;;;;;;;;;;;;;19.86;61.83;100940.75;5044107;28;1666;-68
2023/10/11 00:16:17;;;;;;;;;;;;;;;19.85;61.72;100925.59;5037603;28;2253;-68
2023/10/11 00:18:43;;;;;;;;;;;;;;;19.86;61.94;100923.50;5041920;28;2403;-68
2023/10/11 00:21:11;;;;;;;;;;;;;;;19.86;61.77;100929.25;5042921;28;2059;-68
2023/10/11 00:23:41;;;;;;;;;;;;;;;19.87;61.90;100922.09;5041959;28;2172;-68
2023/10/11 00:26:07;;;;;;;;;;;;;;;19.86;61.71;100921.34;5041305;28;2237;-68
2023/10/11 00:28:37;;;;;;;;;;;;;;;19.85;61.77;100922.00;5020329;28;2357;-68
2023/10/11 00:31:06;;;;;;;;;;;;;;;19.87;61.66;100916.34;5038010;28;6173;-67
2023/10/11 00:33:33;;;;;;;;;;;;;;;19.85;61.68;100911.22;5021470;28;2232;-68
2023/10/11 00:36:05;;;;;;;;;;;;;;;19.84;61.78;100915.50;5040238;28;2185;-71
2023/10/11 00:38:42;;;;;;;;;;;;;;;19.84;61.78;100912.63;5042328;28;1767;-71
2023/10/11 00:41:14;;;;;;;;;;;;;;;19.83;61.94;100914.00;5038408;28;2290;-72
2023/10/11 00:43:41;;;;;;;;;;;;;;;19.85;61.79;100922.00;5022963;28;2355;-72
2023/10/11 00:46:08;;;;;;;;;;;;;;;19.84;61.75;100921.25;5038485;28;2473;-71
2023/10/11 00:48:36;;;;;;;;;;;;;;;19.83;61.85;100911.13;5039949;28;2203;-71
2023/10/11 00:51:02;;;;;;;;;;;;;;;19.85;61.77;100916.25;5041033;28;2110;-71
2023/10/11 00:53:34;;;;;;;;;;;;;;;19.84;61.72;100914.78;5041125;28;2141;-71
2023/10/11 00:56:02;;;;;;;;;;;;;;;19.84;61.70;100898.25;5018673;28;2192;-72
2023/10/11 00:58:28;;;;;;;;;;;;;;;19.85;61.80;100899.00;5039267;28;2426;-71
2023/10/11 01:00:54;;;;;;;;;;;;;;;19.85;61.62;100904.75;5037669;28;6110;-71
2023/10/11 01:03:23;;;;;;;;;;;;;;;19.86;61.70;100906.25;5021943;28;2304;-71
2023/10/11 01:05:55;;;;;;;;;;;;;;;19.84;61.78;100904.00;5037681;28;2292;-71
2023/10/11 01:08:21;;;;;;;;;;;;;;;19.84;61.76;100903.28;5036919;28;2203;-71
2023/10/11 01:10:48;;;;;;;;;;;;;;;19.85;61.65;100893.25;5031483;28;2319;-71
2023/10/11 01:13:18;;;;;;;;;;;;;;;19.84;61.74;100891.78;5039268;28;2193;-71
2023/10/11 01:15:47;;;;;;;;;;;;;;;19.83;61.74;100891.00;5038951;28;2330;-71
2023/10/11 01:18:13;;;;;;;;;;;;;;;19.84;61.82;100877.41;5037746;28;2716;-71
2023/10/11 01:20:41;;;;;;;;;;;;;;;19.83;61.86;100878.78;5040459;28;2422;-71
2023/10/11 01:23:07;;;;;;;;;;;;;;;19.83;61.85;100876.66;5041247;28;1909;-72
2023/10/11 01:25:34;;;;;;;;;;;;;;;19.83;61.62;100885.28;5021899;28;2229;-71
2023/10/11 01:28:01;;;;;;;;;;;;;;;19.84;61.57;100878.16;5033377;28;2252;-71
2023/10/11 01:30:27;;;;;;;;;;;;;;;19.83;61.88;100890.28;5034412;28;7636;-71
2023/10/11 01:32:56;;;;;;;;;;;;;;;19.84;61.68;100868.78;5035441;28;2109;-72
2023/10/11 01:35:23;;;;;;;;;;;;;;;19.83;61.59;100867.28;5038064;28;2413;-71
2023/10/11 01:37:54;;;;;;;;;;;;;;;19.83;61.81;100861.53;5040684;28;2089;-71
2023/10/11 01:40:21;;;;;;;;;;;;;;;19.83;61.84;100858.66;5040027;28;2144;-72
2023/10/11 01:42:49;;;;;;;;;;;;;;;19.82;61.81;100857.19;5038191;28;2186;-71
2023/10/11 01:45:17;;;;;;;;;;;;;;;19.81;61.73;100858.56;5036042;28;2207;-71
2023/10/11 01:51:46;;;;;;;;;;;;;;;19.81;61.82;100850.72;5024735;28;2255;-71
2023/10/11 01:54:15;;;;;;;;;;;;;;;19.82;61.84;100842.81;5013605;28;2161;-71
2023/10/11 01:56:42;;;;;;;;;;;;;;;19.83;61.66;100844.31;5030227;28;2203;-72
2023/10/11 01:59:12;;;;;;;;;;;;;;;19.82;61.66;100842.81;5021765;28;2229;-71
2023/10/11 02:01:38;;;;;;;;;;;;;;;19.80;61.75;100842.72;5016849;28;6128;-72
2023/10/11 02:04:14;;;;;;;;;;;;;;;19.81;61.73;100835.59;5040602;28;2134;-71
2023/10/11 02:06:41;;;;;;;;;;;;;;;19.82;61.75;100837.09;5040935;28;2156;-72
2023/10/11 02:09:11;;;;;;;;;;;;;;;19.82;61.69;100842.81;5024218;28;2170;-71
2023/10/11 02:11:41;;;;;;;;;;;;;;;19.81;61.75;100835.59;5042156;28;1694;-71
2023/10/11 02:14:09;;;;;;;;;;;;;;;19.81;61.73;100829.84;5037344;28;2344;-71
2023/10/11 02:16:36;;;;;;;;;;;;;;;19.81;61.66;100815.47;5015831;28;2345;-71
2023/10/11 02:19:02;;;;;;;;;;;;;;;19.81;61.56;100818.34;5018093;28;2316;-71
2023/10/11 02:21:36;;;;;;;;;;;;;;;19.81;61.80;100824.84;5039376;28;2404;-71
2023/10/11 02:24:04;;;;;;;;;;;;;;;19.79;61.79;100816.13;5023849;28;2194;-71
2023/10/11 02:26:31;;;;;;;;;;;;;;;19.81;61.64;100824.09;5024035;28;1750;-71
2023/10/11 02:29:01;;;;;;;;;;;;;;;19.80;61.74;100811.13;5041815;28;1981;-71
2023/10/11 02:31:31;;;;;;;;;;;;;;;19.79;61.70;100821.13;5039651;28;6329;-71
2023/10/11 02:34:12;;;;;;;;;;;;;;;19.80;61.76;100805.38;5035706;28;2370;-71
2023/10/11 02:36:42;;;;;;;;;;;;;;;19.80;61.63;100805.38;5037913;28;2101;-71
2023/10/11 02:39:17;;;;;;;;;;;;;;;19.80;61.76;100811.13;5036799;28;2008;-72
2023/10/11 02:41:50;;;;;;;;;;;;;;;19.80;61.81;100799.63;5023419;28;2138;-71
2023/10/11 02:44:16;;;;;;;;;;;;;;;19.80;61.58;100805.38;5037250;28;2129;-72
2023/10/11 02:46:43;;;;;;;;;;;;;;;19.79;61.81;100804.63;5037385;28;2270;-71
2023/10/11 02:49:18;;;;;;;;;;;;;;;19.79;61.54;100801.75;5031512;28;2518;-71
2023/10/11 02:51:59;;;;;;;;;;;;;;;19.78;61.80;100794.50;5018357;28;2632;-71
2023/10/11 02:54:42;;;;;;;;;;;;;;;19.79;61.57;100787.41;5037156;28;2360;-71
2023/10/11 02:57:18;;;;;;;;;;;;;;;19.79;61.58;100775.13;5041924;28;2130;-71
2023/10/11 02:59:50;;;;;;;;;;;;;;;19.78;61.58;100762.91;5039948;28;2136;-71
2023/10/11 03:02:16;;;;;;;;;;;;;;;19.78;61.62;100773.66;5017698;28;6257;-72
2023/10/11 03:04:44;;;;;;;;;;;;;;;19.78;61.81;100771.53;5020297;28;2271;-72
2023/10/11 03:07:23;;;;;;;;;;;;;;;19.79;61.59;100773.03;5022833;28;1690;-71
2023/10/11 03:09:50;;;;;;;;;;;;;;;19.78;61.62;100773.66;5036749;28;1969;-71
2023/10/11 03:12:26;;;;;;;;;;;;;;;19.78;61.78;100779.41;5023054;28;2131;-72
2023/10/11 03:14:56;;;;;;;;;;;;;;;19.77;61.58;100760.69;5016386;28;2138;-71
2023/10/11 03:17:22;;;;;;;;;;;;;;;19.77;61.66;100763.56;5036749;28;2054;-71
2023/10/11 03:19:52;;;;;;;;;;;;;;;19.77;61.64;100755.69;5036583;28;2214;-71
2023/10/11 03:22:20;;;;;;;;;;;;;;;19.77;61.76;100757.81;5039085;28;2095;-71
2023/10/11 03:24:53;;;;;;;;;;;;;;;19.77;61.49;100749.94;5040469;28;2096;-71
2023/10/11 03:27:27;;;;;;;;;;;;;;;19.77;61.63;100755.69;5041763;28;1650;-71
2023/10/11 03:29:53;;;;;;;;;;;;;;;19.78;61.58;100744.94;5038322;28;2039;-71
2023/10/11 03:32:24;;;;;;;;;;;;;;;19.77;61.75;100743.44;5036378;28;6284;-71
2023/10/11 03:34:50;;;;;;;;;;;;;;;19.76;61.76;100748.44;5042446;28;2173;-72
2023/10/11 03:37:19;;;;;;;;;;;;;;;19.76;61.70;100750.59;5044242;28;2193;-72
2023/10/11 03:39:56;;;;;;;;;;;;;;;19.77;61.62;100737.69;5040739;28;2229;-72
2023/10/11 03:42:54;;;;;;;;;;;;;;;19.76;61.76;100744.84;5041214;28;2325;-72
2023/10/11 03:45:20;;;;;;;;;;;;;;;19.75;61.70;100734.75;5040853;28;2114;-72
2023/10/11 03:47:51;;;;;;;;;;;;;;;19.76;61.54;100727.59;5042284;28;2250;-72
2023/10/11 03:50:24;;;;;;;;;;;;;;;19.76;61.57;100731.22;5039800;28;2057;-72
2023/10/11 03:52:51;;;;;;;;;;;;;;;19.76;61.56;100730.47;5041455;28;2417;-72
2023/10/11 03:55:17;;;;;;;;;;;;;;;19.76;61.60;100736.22;5035997;28;2279;-72
2023/10/11 03:57:45;;;;;;;;;;;;;;;19.76;61.73;100741.97;5033863;28;2482;-72
2023/10/11 04:00:25;;;;;;;;;;;;;;;19.75;61.65;100735.47;5040581;28;6158;-71
2023/10/11 04:03:02;;;;;;;;;;;;;;;19.75;61.47;100729.75;5036481;28;2351;-71
2023/10/11 04:05:34;;;;;;;;;;;;;;;19.78;61.58;100739.94;5038510;28;2196;-71
2023/10/11 04:08:05;;;;;;;;;;;;;;;19.80;61.55;100736.41;5042602;28;2225;-71
2023/10/11 04:10:46;;;;;;;;;;;;;;;19.79;61.55;100734.91;5044842;28;2279;-71
2023/10/11 04:13:15;;;;;;;;;;;;;;;19.80;61.47;100739.28;5038217;28;2061;-71
2023/10/11 04:15:41;;;;;;;;;;;;;;;19.76;61.54;100736.22;5040001;28;2339;-71
2023/10/11 04:18:20;;;;;;;;;;;;;;;19.77;61.59;100731.94;5025605;28;2043;-71
2023/10/11 04:21:13;;;;;;;;;;;;;;;19.77;61.61;100731.94;5041930;28;2064;-71
2023/10/11 04:23:39;;;;;;;;;;;;;;;19.77;61.71;100732.72;5040718;28;2287;-71
2023/10/11 04:26:23;;;;;;;;;;;;;;;19.76;61.41;100739.84;5040873;28;2125;-71
2023/10/11 04:28:52;;;;;;;;;;;;;;;19.77;61.62;100726.19;5037829;28;2692;-71
2023/10/11 04:31:42;;;;;;;;;;;;;;;19.76;61.63;100730.47;5038281;28;6219;-71
2023/10/11 04:34:14;;;;;;;;;;;;;;;19.76;61.53;100724.72;5036566;28;2452;-71
2023/10/11 04:36:43;;;;;;;;;;;;;;;19.73;61.66;100721.03;5036957;28;2457;-71
2023/10/11 04:39:19;;;;;;;;;;;;;;;19.74;61.60;100727.50;5038323;28;2265;-71
2023/10/11 04:41:52;;;;;;;;;;;;;;;19.80;61.52;100727.78;5038026;28;2208;-71
2023/10/11 04:44:18;;;;;;;;;;;;;;;19.74;61.68;100727.50;5039477;28;2213;-71
2023/10/11 04:46:55;;;;;;;;;;;;;;;19.73;61.58;100723.91;5040850;28;1988;-71
2023/10/11 04:49:23;;;;;;;;;;;;;;;19.76;61.58;100724.72;5041188;28;1910;-72
2023/10/11 04:51:49;;;;;;;;;;;;;;;19.75;61.54;100720.38;5041773;28;1763;-71
2023/10/11 04:54:18;;;;;;;;;;;;;;;19.74;61.57;100713.88;5043419;28;1766;-71
2023/10/11 04:59:16;;;;;;;;;;;;;;;19.73;61.57;100720.28;5042846;28;1710;-71
2023/10/11 05:04:15;;;;;;;;;;;;;;;19.73;61.67;100720.28;5044299;28;1744;-71
2023/10/11 05:06:43;;;;;;;;;;;;;;;19.72;61.64;100719.53;5043739;28;2234;-71
2023/10/11 05:11:50;;;;;;;;;;;;;;;19.73;61.60;100720.28;5043580;28;1653;-71
2023/10/11 05:14:29;;;;;;;;;;;;;;;19.73;61.59;100726.03;5042398;28;2051;-71
2023/10/11 05:16:59;;;;;;;;;;;;;;;19.73;61.47;100721.03;5042038;28;1991;-71
2023/10/11 05:19:28;;;;;;;;;;;;;;;19.73;61.73;100720.28;5042801;28;1901;-71
2023/10/11 05:21:55;;;;;;;;;;;;;;;19.72;61.60;100718.78;5043625;28;1782;-71
2023/10/11 05:32:42;;;;;;;;;;;;;;;19.71;61.59;100728.81;5036992;28;7307;-71
2023/10/11 05:51:27;;;;;;;;;;;;;;;19.72;61.63;100713.03;5041880;28;2110;-71
2023/10/11 05:53:54;;;;;;;;;;;;;;;19.72;61.66;100715.91;5042297;28;1654;-71
2023/10/11 05:56:23;;;;;;;;;;;;;;;19.72;61.74;100718.78;5041500;28;1622;-71
2023/10/11 05:58:53;;;;;;;;;;;;;;;19.70;61.71;100716.59;5041845;28;1884;-71
2023/10/11 06:01:21;;;;;;;;;;;;;;;19.72;61.59;100718.78;5039271;28;6129;-71
2023/10/11 06:03:51;;;;;;;;;;;;;;;19.71;61.67;100711.56;5042116;28;1785;-72
2023/10/11 06:06:24;;;;;;;;;;;;;;;19.71;61.68;100708.69;5042222;28;1645;-71
2023/10/11 06:08:51;;;;;;;;;;;;;;;19.71;61.74;100717.31;5040357;28;2161;-71
2023/10/11 06:11:18;;;;;;;;;;;;;;;19.70;61.71;100721.56;5040616;28;2233;-71
2023/10/11 06:13:46;;;;;;;;;;;;;;;19.71;61.66;100708.69;5040935;28;1642;-71
2023/10/11 06:16:15;;;;;;;;;;;;;;;19.71;61.60;100711.56;5041421;28;1715;-71
2023/10/11 06:18:57;;;;;;;;;;;;;;;19.71;61.69;100700.06;5042263;28;1880;-71
2023/10/11 06:21:33;;;;;;;;;;;;;;;19.70;61.65;100705.09;5038040;28;2115;-71
2023/10/11 06:24:00;;;;;;;;;;;;;;;19.70;61.66;100704.31;5041389;28;1792;-71
2023/10/11 06:26:52;;;;;;;;;;;;;;;19.69;61.54;100702.84;5042580;28;1782;-71
2023/10/11 06:29:18;;;;;;;;;;;;;;;19.70;61.79;100716.59;5042313;28;1634;-71
2023/10/11 06:31:44;;;;;;;;;;;;;;;19.70;61.62;100712.94;5040921;28;6314;-71
2023/10/11 06:34:22;;;;;;;;;;;;;;;19.69;61.57;100715.09;5039798;28;2074;-71
2023/10/11 06:36:49;;;;;;;;;;;;;;;19.70;61.56;100721.56;5043365;28;1664;-71
2023/10/11 06:40:17;;;;;;;;;;;;;;;19.71;61.57;100717.31;5041222;28;2070;-72
2023/10/11 06:44:47;;;;;;;;;;;;;;;19.69;61.80;100725.84;5024546;28;2214;-71
2023/10/11 06:47:14;;;;;;;;;;;;;;;19.71;61.74;100723.06;5040113;28;2046;-71
2023/10/11 06:49:40;;;;;;;;;;;;;;;19.70;61.58;100718.69;5042100;28;2059;-71
2023/10/11 06:52:07;;;;;;;;;;;;;;;19.71;61.63;100717.31;5041672;28;1606;-71
2023/10/11 06:54:33;;;;;;;;;;;;;;;19.69;61.64;100717.94;5021833;28;2221;-71
2023/10/11 06:57:01;;;;;;;;;;;;;;;19.69;61.61;100720.09;5039346;28;2183;-72
2023/10/11 06:59:28;;;;;;;;;;;;;;;19.70;61.74;100719.44;5041007;28;2142;-72
2023/10/11 07:01:54;;;;;;;;;;;;;;;19.70;61.65;100722.31;5040784;28;6265;-72
2023/10/11 07:04:21;;;;;;;;;;;;;;;19.69;61.57;100714.34;5041136;28;1628;-71
2023/10/11 07:06:48;;;;;;;;;;;;;;;19.70;61.59;100710.06;5045465;28;1574;-71
2023/10/11 07:09:21;;;;;;;;;;;;;;;19.70;61.71;100712.94;5044331;28;2098;-71
2023/10/11 07:11:50;;;;;;;;;;;;;;;19.70;61.60;100710.06;5043600;28;2090;-71
2023/10/11 07:14:18;;;;;;;;;;;;;;;19.72;61.58;100710.16;5044846;28;2111;-70
2023/10/11 07:16:45;;;;;;;;;;;;;;;19.66;61.71;100717.09;5044854;28;2198;-71
2023/10/11 07:19:15;;;;;;;;;;;;;;;19.56;61.61;100704.38;5045503;28;1566;-72
2023/10/11 07:24:19;;;;;;;;;;;;;;;19.63;61.45;100701.16;5043124;28;2266;-72
2023/10/11 07:29:13;;;;;;;;;;;;;;;19.68;61.17;100713.59;5043038;28;2119;-72
2023/10/11 07:31:48;;;;;;;;;;;;;;;19.70;61.12;100715.81;5042383;28;6304;-72
2023/10/11 07:34:20;;;;;;;;;;;;;;;19.73;61.08;100711.66;5040908;28;2192;-72
2023/10/11 07:36:48;;;;;;;;;;;;;;;19.74;61.02;100716.00;5043313;28;2087;-71
2023/10/11 07:42:08;;;;;;;;;;;;;;;19.75;60.88;100698.13;5044324;28;2253;-73
2023/10/11 07:44:36;;;;;;;;;;;;;;;19.77;60.87;100697.47;5042012;28;2206;-72
2023/10/11 07:47:06;;;;;;;;;;;;;;;19.79;60.61;100694.69;5040497;28;2193;-72
2023/10/11 07:49:38;;;;;;;;;;;;;;;19.79;60.71;100694.69;5041423;28;2159;-71
2023/10/11 07:52:10;;;;;;;;;;;;;;;19.77;60.77;100688.84;5042432;28;2029;-71
2023/10/11 07:54:39;;;;;;;;;;;;;;;19.74;60.76;100678.66;5044300;28;2299;-72
2023/10/11 07:57:12;;;;;;;;;;;;;;;19.76;60.83;100675.88;5043431;28;1930;-72
2023/10/11 07:59:39;;;;;;;;;;;;;;;19.75;60.69;100683.03;5044612;28;1641;-72
2023/10/11 08:02:26;;;;;;;;;;;;;;;19.77;60.58;100685.97;5043474;28;6267;-71
2023/10/11 08:04:57;;;;;;;;;;;;;;;19.78;60.49;100684.59;5043145;28;1559;-71
2023/10/11 08:07:23;;;;;;;;;;;;;;;19.74;60.58;100681.53;5041626;28;2053;-72
2023/10/11 08:09:52;;;;;;;;;;;;;;;19.74;60.61;100684.41;5043359;28;1691;-72
2023/10/11 08:12:21;;;;;;;;;;;;;;;19.75;60.28;100678.03;5041972;28;2308;-76
2023/10/11 08:14:48;;;;;;;;;;;;;;;19.73;60.33;100675.06;5043895;28;2209;-74
2023/10/11 08:17:14;;;;;;;;;;;;;;;19.76;60.35;100675.88;5040629;28;2252;-73
2023/10/11 08:19:44;;;;;;;;;;;;;;;19.79;60.17;100683.19;5042778;28;2051;-76
2023/10/11 08:22:14;;;;;;;;;;;;;;;19.83;60.12;100689.13;5043400;28;1629;-72
2023/10/11 08:24:48;;;;;;;;;;;;;;;19.82;60.36;100687.66;5042206;28;2130;-71
2023/10/11 08:27:28;;;;;;;;;;;;;;;19.84;60.11;100696.38;5043876;28;1555;-71
2023/10/11 08:30:08;;;;;;;;;;;;;;;19.85;60.09;100689.22;5042861;28;1631;-73
2023/10/11 08:32:42;;;;;;;;;;;;;;;19.86;59.99;100687.84;5042938;28;6164;-72
2023/10/11 08:35:09;;;;;;;;;;;;;;;20.04;59.93;100697.31;5042649;28;2012;-70
2023/10/11 08:37:37;;;;;;;;;;;;;;;20.24;59.56;100693.84;5042788;28;1626;-71
2023/10/11 08:40:18;;;;;;;;;;;;;;;20.43;59.27;100701.88;5043239;28;1650;-72
2023/10/11 08:42:48;;;;;;;;;;;;;;;20.08;59.42;100697.47;5042496;28;1590;-71
2023/10/11 08:45:16;;;;;;;;;;;;;;;20.06;59.70;100699.50;5041747;28;2055;-71
2023/10/11 08:47:45;;;;;;;;;;;;;;;20.01;59.75;100681.34;5042301;28;2166;-71
2023/10/11 08:50:17;;;;;;;;;;;;;;;20.01;59.73;100681.34;5042165;28;2040;-71
2023/10/11 08:52:44;;;;;;;;;;;;;;;20.02;59.83;100677.09;5026286;28;2114;-70
2023/10/11 08:55:12;;;;;;;;;;;;;;;20.00;59.67;100677.00;5025674;28;1906;-71
2023/10/11 08:57:38;;;;;;;;;;;;;;;19.99;59.67;100684.13;5042155;28;2193;-71
2023/10/11 09:00:18;;;;;;;;;;;;;;;19.98;60.08;100676.91;5022004;28;6452;-80
2023/10/11 09:02:48;;;;;;;;;;;;;;;19.99;59.93;100683.38;5044251;28;2264;-80
2023/10/11 09:05:32;;;;;;;;;;;;;;;20.01;59.70;100674.84;5043002;28;2285;-80
2023/10/11 09:08:03;;;;;;;;;;;;;;;19.99;60.03;100677.63;5042961;28;1826;-80
2023/10/11 09:10:33;;;;;;;;;;;;;;;19.98;60.08;100676.91;5042153;28;2351;-80
2023/10/11 09:13:00;;;;;;;;;;;;;;;19.98;60.22;100674.03;5041957;28;2229;-78
2023/10/11 09:15:33;;;;;;;;;;;;;;;20.00;60.19;100674.13;5041542;28;2145;-81
2023/10/11 09:18:15;;;;;;;;;;;;;;;20.02;60.47;100670.59;5039797;28;2398;-80
2023/10/11 09:21:08;;;;;;;;;;;;;;;19.98;60.36;100691.28;5024481;28;2123;-78
2023/10/11 09:23:35;;;;;;;;;;;;;;;20.01;60.45;100692.84;5042905;28;2193;-78
2023/10/11 09:26:02;;;;;;;;;;;;;;;20.02;60.25;100694.34;5042582;28;2232;-79
2023/10/11 09:28:28;;;;;;;;;;;;;;;20.00;60.46;100696.38;5038484;28;2141;-79
2023/10/11 09:31:09;;;;;;;;;;;;;;;20.22;60.36;100699.50;5041225;28;6033;-82
2023/10/11 09:33:40;;;;;;;;;;;;;;;20.26;60.26;100693.94;5042814;28;2054;-81
2023/10/11 09:36:08;;;;;;;;;;;;;;;20.38;60.07;100682.97;5042023;28;2082;-81
2023/10/11 09:38:41;;;;;;;;;;;;;;;20.44;60.17;100680.34;5043843;28;1852;-78
2023/10/11 09:41:08;;;;;;;;;;;;;;;20.46;59.85;100683.31;5041624;28;1786;-81
2023/10/11 09:43:42;;;;;;;;;;;;;;;20.42;60.08;100683.13;5041968;28;1658;-82
2023/10/11 09:46:12;;;;;;;;;;;;;;;20.44;59.79;100683.22;5042676;28;1732;-82
2023/10/11 09:48:42;;;;;;;;;;;;;;;20.58;59.54;100685.25;5009875;28;2172;-86
2023/10/11 09:51:13;;;;;;;;;;;;;;;20.65;59.49;100687.75;5025322;28;1914;-84
2023/10/11 09:53:49;;;;;;;;;;;;;;;20.65;59.33;100681.25;5041875;28;1706;-81
2023/10/11 09:56:25;;;;;;;;;;;;;;;20.68;59.19;100682.81;5025309;28;1801;-81
2023/10/11 09:59:10;;;;;;;;;;;;;;;20.63;59.12;100675.41;5024902;28;1530;-79
2023/10/11 10:01:41;;;;;;;;;;;;;;;20.64;58.95;100680.50;5040748;28;6311;-79
2023/10/11 10:04:09;;;;;;;;;;;;;;;20.67;58.91;100679.19;5041946;28;1809;-80
2023/10/11 10:06:36;;;;;;;;;;;;;;;20.65;59.06;100675.50;5041080;28;1778;-79
2023/10/11 10:09:24;;;;;;;;;;;;;;;20.71;58.89;100678.63;5020466;28;3512;-82
2023/10/11 10:12:20;;;;;;;;;;;;;;;20.75;58.89;100689.56;5039746;28;2411;-81
2023/10/11 10:14:50;;;;;;;;;;;;;;;20.75;58.90;100686.69;5024535;28;2773;-81
2023/10/11 10:17:17;;;;;;;;;;;;;;;20.73;58.91;100687.34;5040866;28;2209;-80
2023/10/11 10:19:45;;;;;;;;;;;;;;;20.75;58.86;100684.53;5039404;28;2240;-81
2023/10/11 10:22:27;;;;;;;;;;;;;;;20.72;58.66;100691.63;5040957;28;2252;-82
2023/10/11 10:24:55;;;;;;;;;;;;;;;20.74;58.41;100683.06;5040971;28;1674;-81
2023/10/11 10:27:32;;;;;;;;;;;;;;;20.72;58.59;100671.47;5020573;28;2327;-70
2023/10/11 10:30:04;;;;;;;;;;;;;;;20.59;58.80;100680.97;5039550;28;2181;-70
2023/10/11 10:32:30;;;;;;;;;;;;;;;20.56;58.89;100679.41;5039844;28;6107;-70
2023/10/11 10:35:18;;;;;;;;;;;;;;;20.51;59.20;100679.22;5041700;28;1710;-70
2023/10/11 10:37:57;;;;;;;;;;;;;;;20.55;58.98;100660.63;5040990;28;2114;-70
2023/10/11 10:40:26;;;;;;;;;;;;;;;20.50;58.82;100674.09;5046032;28;1630;-70
2023/10/11 10:43:22;;;;;;;;;;;;;;;20.43;59.12;100661.63;5046888;28;2102;-70
2023/10/11 10:45:48;;;;;;;;;;;;;;;20.45;59.08;100664.56;5047915;28;2423;-70
2023/10/11 10:48:15;;;;;;;;;;;;;;;20.45;59.12;100663.84;5047368;28;2169;-70
2023/10/11 10:50:48;;;;;;;;;;;;;;;20.45;59.19;100669.59;5047504;28;1615;-70
2023/10/11 10:53:15;;;;;;;;;;;;;;;20.45;59.31;100670.31;5045413;28;2248;-70
2023/10/11 10:55:42;;;;;;;;;;;;;;;20.40;59.10;100662.91;5044702;28;2192;-70
2023/10/11 10:58:15;;;;;;;;;;;;;;;20.41;59.20;100652.91;5047498;28;2412;-70
2023/10/11 11:00:43;;;;;;;;;;;;;;;20.39;59.54;100658.56;5031064;28;6187;-71
2023/10/11 11:03:22;;;;;;;;;;;;;;;20.40;59.48;100656.44;5047843;28;2125;-69
2023/10/11 11:05:55;;;;;;;;;;;;;;;20.43;59.40;100644.38;5045640;28;2353;-69
2023/10/11 11:08:29;;;;;;;;;;;;;;;20.44;59.32;100645.84;5047344;28;1650;-71
2023/10/11 11:11:18;;;;;;;;;;;;;;;20.43;59.57;100638.63;5031765;28;1921;-71
2023/10/11 11:13:47;;;;;;;;;;;;;;;20.41;59.39;100643.50;5047860;28;1592;-71
2023/10/11 11:16:17;;;;;;;;;;;;;;;20.40;59.46;100648.53;5048116;28;1583;-71
2023/10/11 11:18:43;;;;;;;;;;;;;;;20.38;59.76;100636.94;5046752;28;1577;-71
2023/10/11 11:21:25;;;;;;;;;;;;;;;20.37;59.76;100623.97;5031696;28;1663;-71
2023/10/11 11:23:52;;;;;;;;;;;;;;;20.38;59.85;100644.84;5047766;28;1634;-71
2023/10/11 11:26:21;;;;;;;;;;;;;;;20.38;59.84;100636.22;5025526;28;1801;-71
2023/10/11 11:29:09;;;;;;;;;;;;;;;20.37;59.75;100621.09;5048902;28;1650;-71
2023/10/11 11:31:59;;;;;;;;;;;;;;;20.39;59.72;100624.06;5047141;28;6011;-71
2023/10/11 11:34:34;;;;;;;;;;;;;;;20.40;59.68;100628.41;5048975;28;1714;-71
2023/10/11 11:37:04;;;;;;;;;;;;;;;20.41;59.87;100624.16;5048063;28;1555;-71
2023/10/11 11:39:39;;;;;;;;;;;;;;;20.40;59.72;100622.66;5048437;28;1598;-71
2023/10/11 11:42:19;;;;;;;;;;;;;;;20.39;59.99;100621.19;5048429;28;1615;-70
2023/10/11 11:44:46;;;;;;;;;;;;;;;20.42;59.75;100608.38;5047627;28;3462;-71
2023/10/11 11:47:21;;;;;;;;;;;;;;;20.41;59.87;100606.88;5046984;28;1852;-72
2023/10/11 11:49:51;;;;;;;;;;;;;;;20.40;59.77;100605.41;5047611;28;1653;-71
2023/10/11 11:52:17;;;;;;;;;;;;;;;20.41;59.94;100614.75;5043748;28;1988;-71
2023/10/11 11:54:44;;;;;;;;;;;;;;;20.41;59.92;100604.00;5043624;28;1778;-70
2023/10/11 11:57:12;;;;;;;;;;;;;;;20.41;60.06;100612.66;5044631;28;1685;-71
2023/10/11 11:59:40;;;;;;;;;;;;;;;20.41;60.01;100601.13;5044195;28;1653;-71
2023/10/11 12:02:16;;;;;;;;;;;;;;;20.41;59.89;100612.66;5045038;28;6646;-71
2023/10/11 12:04:47;;;;;;;;;;;;;;;20.40;60.09;100599.66;5043903;28;1706;-70
2023/10/11 12:07:14;;;;;;;;;;;;;;;20.40;60.16;100588.13;5043674;28;1717;-71
2023/10/11 12:09:41;;;;;;;;;;;;;;;20.41;60.08;100588.88;5044015;28;1822;-71
2023/10/11 12:12:27;;;;;;;;;;;;;;;20.41;60.01;100588.88;5045044;28;1981;-71
2023/10/11 12:14:54;;;;;;;;;;;;;;;20.41;60.01;100575.25;5043345;28;1575;-71
2023/10/11 12:17:21;;;;;;;;;;;;;;;20.41;60.24;100589.63;5043859;28;1564;-71
2023/10/11 12:19:53;;;;;;;;;;;;;;;20.40;60.01;100588.13;5044472;28;1713;-71
2023/10/11 12:22:22;;;;;;;;;;;;;;;20.40;60.06;100588.13;5042304;28;1557;-71
2023/10/11 12:24:48;;;;;;;;;;;;;;;20.41;60.23;100583.88;5044741;28;1808;-71
2023/10/11 12:27:15;;;;;;;;;;;;;;;20.40;59.95;100582.38;5043362;28;1638;-70
2023/10/11 12:29:44;;;;;;;;;;;;;;;20.41;60.33;100589.63;5043722;28;1629;-71
2023/10/11 12:32:33;;;;;;;;;;;;;;;20.41;60.32;100583.88;5042851;28;6234;-70
2023/10/11 12:35:04;;;;;;;;;;;;;;;20.41;60.19;100586.75;5044030;28;1845;-70
2023/10/11 12:37:33;;;;;;;;;;;;;;;20.40;60.47;100582.38;5044870;28;1551;-71
2023/10/11 12:39:59;;;;;;;;;;;;;;;20.40;60.26;100593.91;5041170;28;1876;-71
2023/10/11 12:42:26;;;;;;;;;;;;;;;20.39;60.50;100592.44;5044115;28;1618;-71
2023/10/11 12:44:53;;;;;;;;;;;;;;;20.39;60.48;100586.66;5041728;28;1829;-74
2023/10/11 12:47:20;;;;;;;;;;;;;;;20.39;60.51;100580.91;5042927;28;1571;-70
2023/10/11 12:49:46;;;;;;;;;;;;;;;20.39;60.64;100586.66;5043847;28;1781;-71
2023/10/11 12:52:17;;;;;;;;;;;;;;;20.39;60.39;100583.78;5024832;28;2845;-71
2023/10/11 12:54:44;;;;;;;;;;;;;;;20.40;60.54;100570.16;5043355;28;1629;-71
2023/10/11 12:57:14;;;;;;;;;;;;;;;20.39;60.54;100569.41;5043128;28;1654;-71
2023/10/11 12:59:41;;;;;;;;;;;;;;;20.38;60.57;100567.91;5043684;28;1611;-71
2023/10/11 13:02:10;;;;;;;;;;;;;;;20.40;60.58;100568.00;5041738;28;6490;-71
2023/10/11 13:04:41;;;;;;;;;;;;;;;20.41;60.61;100566.63;5041675;28;1615;-71
2023/10/11 13:07:13;;;;;;;;;;;;;;;20.42;60.42;100568.09;5042835;28;1829;-71
2023/10/11 13:09:40;;;;;;;;;;;;;;;20.43;60.45;100563.06;5042967;28;1682;-70
2023/10/11 13:12:08;;;;;;;;;;;;;;;20.43;60.42;100563.84;5041607;28;1977;-71
2023/10/11 13:14:35;;;;;;;;;;;;;;;20.42;60.34;100553.72;5043154;28;1695;-71
2023/10/11 13:17:08;;;;;;;;;;;;;;;20.43;60.39;100557.31;5042472;28;1825;-71
2023/10/11 13:19:34;;;;;;;;;;;;;;;20.43;60.50;100558.09;5042768;28;1633;-71
2023/10/11 13:22:09;;;;;;;;;;;;;;;20.44;60.31;100553.81;5042594;28;1575;-70
2023/10/11 13:24:35;;;;;;;;;;;;;;;20.44;60.33;100553.81;5043148;28;1646;-71
2023/10/11 13:27:03;;;;;;;;;;;;;;;20.44;60.57;100559.56;5042193;28;1637;-71
2023/10/11 13:29:30;;;;;;;;;;;;;;;20.45;60.67;100551.66;5042303;28;1635;-70
2023/10/11 13:31:56;;;;;;;;;;;;;;;20.45;60.44;100566.78;5042123;28;7281;-71
2023/10/11 13:34:29;;;;;;;;;;;;;;;20.44;60.55;100553.81;5042825;28;1609;-70
2023/10/11 13:36:59;;;;;;;;;;;;;;;20.44;60.55;100548.06;5041219;28;1590;-71
2023/10/11 13:39:25;;;;;;;;;;;;;;;20.45;60.37;100543.75;5043489;28;1714;-70
2023/10/11 13:41:55;;;;;;;;;;;;;;;20.46;60.43;100545.25;5043023;28;1709;-70
2023/10/11 13:44:22;;;;;;;;;;;;;;;20.46;60.66;100544.53;5042006;28;1611;-70
2023/10/11 13:46:51;;;;;;;;;;;;;;;20.46;60.63;100533.03;5040619;28;1573;-71
2023/10/11 13:49:25;;;;;;;;;;;;;;;20.46;60.62;100541.66;5043184;28;1614;-70
2023/10/11 13:51:58;;;;;;;;;;;;;;;20.45;60.49;100538.00;5043492;28;1969;-70
2023/10/11 13:54:45;;;;;;;;;;;;;;;20.46;60.73;100522.25;5042073;28;1642;-70